sensor_id;sensor_type;location;lat;lon;timestamp;P1;durP1;ratioP1;P2;durP2;ratioP2
58974;SDS011;44751;52.236;5.178;2023-07-20T00:01:31;1.60;;;1.10;;
58974;SDS011;44751;52.236;5.178;2023-07-20T00:03:58;1.30;;;1.20;;
58974;SDS011;44751;52.236;5.178;2023-07-20T00:06:24;1.20;;;1.00;;
58974;SDS011;44751;52.236;5.178;2023-07-20T00:08:52;1.17;;;1.08;;
58974;SDS011;44751;52.236;5.178;2023-07-20T00:11:21;1.63;;;1.00;;
58974;SDS011;44751;52.236;5.178;2023-07-20T00:13:52;1.73;;;0.95;;
58974;SDS011;44751;52.236;5.178;2023-07-20T00:16:18;1.77;;;1.10;;
58974;SDS011;44751;52.236;5.178;2023-07-20T00:18:45;1.40;;;0.95;;
58974;SDS011;44751;52.236;5.178;2023-07-20T00:21:12;1.30;;;0.90;;
58974;SDS011;44751;52.236;5.178;2023-07-20T00:23:38;1.10;;;1.00;;
58974;SDS011;44751;52.236;5.178;2023-07-20T00:26:04;1.60;;;0.98;;
58974;SDS011;44751;52.236;5.178;2023-07-20T00:28:31;1.88;;;1.65;;
58974;SDS011;44751;52.236;5.178;2023-07-20T00:30:59;1.17;;;0.98;;
58974;SDS011;44751;52.236;5.178;2023-07-20T00:33:26;1.10;;;1.00;;
58974;SDS011;44751;52.236;5.178;2023-07-20T00:35:52;1.63;;;1.05;;
58974;SDS011;44751;52.236;5.178;2023-07-20T00:38:19;1.60;;;0.90;;
58974;SDS011;44751;52.236;5.178;2023-07-20T00:40:45;2.22;;;1.20;;
58974;SDS011;44751;52.236;5.178;2023-07-20T00:43:13;1.77;;;1.10;;
58974;SDS011;44751;52.236;5.178;2023-07-20T00:45:40;1.15;;;1.00;;
58974;SDS011;44751;52.236;5.178;2023-07-20T00:48:07;1.40;;;1.30;;
58974;SDS011;44751;52.236;5.178;2023-07-20T00:50:34;1.80;;;1.25;;
58974;SDS011;44751;52.236;5.178;2023-07-20T00:53:01;1.88;;;1.42;;
58974;SDS011;44751;52.236;5.178;2023-07-20T00:55:30;1.85;;;1.33;;
58974;SDS011;44751;52.236;5.178;2023-07-20T00:57:57;1.23;;;1.13;;
58974;SDS011;44751;52.236;5.178;2023-07-20T01:00:24;1.27;;;1.15;;
58974;SDS011;44751;52.236;5.178;2023-07-20T01:02:51;3.05;;;1.55;;
58974;SDS011;44751;52.236;5.178;2023-07-20T01:05:18;1.35;;;1.25;;
58974;SDS011;44751;52.236;5.178;2023-07-20T01:08:06;1.40;;;1.30;;
58974;SDS011;44751;52.236;5.178;2023-07-20T01:13:17;2.67;;;1.70;;
58974;SDS011;44751;52.236;5.178;2023-07-20T01:15:48;2.42;;;1.67;;
58974;SDS011;44751;52.236;5.178;2023-07-20T01:18:16;3.43;;;1.50;;
58974;SDS011;44751;52.236;5.178;2023-07-20T01:20:43;1.63;;;1.52;;
58974;SDS011;44751;52.236;5.178;2023-07-20T01:23:27;1.92;;;1.48;;
58974;SDS011;44751;52.236;5.178;2023-07-20T01:26:14;2.00;;;1.50;;
58974;SDS011;44751;52.236;5.178;2023-07-20T01:31:42;2.90;;;1.48;;
58974;SDS011;44751;52.236;5.178;2023-07-20T01:34:11;1.77;;;1.58;;
58974;SDS011;44751;52.236;5.178;2023-07-20T01:36:43;1.80;;;1.70;;
58974;SDS011;44751;52.236;5.178;2023-07-20T01:39:10;2.55;;;1.85;;
58974;SDS011;44751;52.236;5.178;2023-07-20T01:41:37;3.72;;;2.05;;
58974;SDS011;44751;52.236;5.178;2023-07-20T01:44:04;2.47;;;1.90;;
58974;SDS011;44751;52.236;5.178;2023-07-20T01:46:31;3.22;;;1.48;;
58974;SDS011;44751;52.236;5.178;2023-07-20T01:48:57;2.45;;;2.08;;
58974;SDS011;44751;52.236;5.178;2023-07-20T01:51:24;2.50;;;1.70;;
58974;SDS011;44751;52.236;5.178;2023-07-20T01:53:52;3.60;;;2.00;;
58974;SDS011;44751;52.236;5.178;2023-07-20T01:56:19;1.90;;;1.70;;
58974;SDS011;44751;52.236;5.178;2023-07-20T01:58:46;3.47;;;2.35;;
58974;SDS011;44751;52.236;5.178;2023-07-20T02:01:12;2.95;;;1.95;;
58974;SDS011;44751;52.236;5.178;2023-07-20T02:03:39;2.53;;;1.90;;
58974;SDS011;44751;52.236;5.178;2023-07-20T02:06:05;4.15;;;1.80;;
58974;SDS011;44751;52.236;5.178;2023-07-20T02:08:32;3.50;;;2.10;;
58974;SDS011;44751;52.236;5.178;2023-07-20T02:10:58;4.78;;;2.20;;
58974;SDS011;44751;52.236;5.178;2023-07-20T02:13:25;2.05;;;1.88;;
58974;SDS011;44751;52.236;5.178;2023-07-20T02:15:51;2.30;;;2.10;;
58974;SDS011;44751;52.236;5.178;2023-07-20T02:18:17;2.92;;;2.35;;
58974;SDS011;44751;52.236;5.178;2023-07-20T02:20:44;4.47;;;2.22;;
58974;SDS011;44751;52.236;5.178;2023-07-20T02:23:11;2.38;;;1.90;;
58974;SDS011;44751;52.236;5.178;2023-07-20T02:25:37;3.58;;;2.15;;
58974;SDS011;44751;52.236;5.178;2023-07-20T02:28:04;2.53;;;1.83;;
58974;SDS011;44751;52.236;5.178;2023-07-20T02:30:31;4.03;;;2.05;;
58974;SDS011;44751;52.236;5.178;2023-07-20T02:32:57;3.28;;;2.08;;
58974;SDS011;44751;52.236;5.178;2023-07-20T02:35:24;3.63;;;2.10;;
58974;SDS011;44751;52.236;5.178;2023-07-20T02:37:50;4.70;;;1.80;;
58974;SDS011;44751;52.236;5.178;2023-07-20T02:40:17;3.08;;;2.00;;
58974;SDS011;44751;52.236;5.178;2023-07-20T02:42:43;2.72;;;2.05;;
58974;SDS011;44751;52.236;5.178;2023-07-20T02:45:10;3.53;;;2.25;;
58974;SDS011;44751;52.236;5.178;2023-07-20T02:47:36;3.20;;;2.20;;
58974;SDS011;44751;52.236;5.178;2023-07-20T02:50:03;3.60;;;2.50;;
58974;SDS011;44751;52.236;5.178;2023-07-20T02:52:32;3.80;;;2.47;;
58974;SDS011;44751;52.236;5.178;2023-07-20T02:54:58;5.13;;;2.40;;
58974;SDS011;44751;52.236;5.178;2023-07-20T02:57:25;2.80;;;2.40;;
58974;SDS011;44751;52.236;5.178;2023-07-20T02:59:52;3.30;;;2.88;;
58974;SDS011;44751;52.236;5.178;2023-07-20T03:02:19;3.67;;;2.58;;
58974;SDS011;44751;52.236;5.178;2023-07-20T03:04:45;3.78;;;2.70;;
58974;SDS011;44751;52.236;5.178;2023-07-20T03:07:11;3.55;;;2.45;;
58974;SDS011;44751;52.236;5.178;2023-07-20T03:09:38;3.33;;;2.53;;
58974;SDS011;44751;52.236;5.178;2023-07-20T03:12:05;2.75;;;2.53;;
58974;SDS011;44751;52.236;5.178;2023-07-20T03:14:32;5.05;;;2.60;;
58974;SDS011;44751;52.236;5.178;2023-07-20T03:16:58;3.70;;;2.78;;
58974;SDS011;44751;52.236;5.178;2023-07-20T03:19:25;3.85;;;2.80;;
58974;SDS011;44751;52.236;5.178;2023-07-20T03:21:53;2.95;;;2.40;;
58974;SDS011;44751;52.236;5.178;2023-07-20T03:24:19;4.15;;;2.72;;
58974;SDS011;44751;52.236;5.178;2023-07-20T03:26:46;4.82;;;2.85;;
58974;SDS011;44751;52.236;5.178;2023-07-20T03:29:12;4.22;;;2.60;;
58974;SDS011;44751;52.236;5.178;2023-07-20T03:31:38;3.55;;;2.40;;
58974;SDS011;44751;52.236;5.178;2023-07-20T03:34:05;2.53;;;2.33;;
58974;SDS011;44751;52.236;5.178;2023-07-20T03:36:33;2.47;;;2.28;;
58974;SDS011;44751;52.236;5.178;2023-07-20T03:39:00;3.35;;;2.10;;
58974;SDS011;44751;52.236;5.178;2023-07-20T03:41:27;2.90;;;2.30;;
58974;SDS011;44751;52.236;5.178;2023-07-20T03:43:54;2.83;;;2.58;;
58974;SDS011;44751;52.236;5.178;2023-07-20T03:46:20;3.13;;;2.30;;
58974;SDS011;44751;52.236;5.178;2023-07-20T03:48:47;5.50;;;2.50;;
58974;SDS011;44751;52.236;5.178;2023-07-20T03:51:13;3.72;;;2.38;;
58974;SDS011;44751;52.236;5.178;2023-07-20T03:53:40;2.67;;;2.47;;
58974;SDS011;44751;52.236;5.178;2023-07-20T03:56:07;3.42;;;2.50;;
58974;SDS011;44751;52.236;5.178;2023-07-20T03:58:33;4.65;;;2.33;;
58974;SDS011;44751;52.236;5.178;2023-07-20T04:01:00;3.38;;;2.17;;
58974;SDS011;44751;52.236;5.178;2023-07-20T04:03:27;3.97;;;2.47;;
58974;SDS011;44751;52.236;5.178;2023-07-20T04:05:54;4.10;;;2.30;;
58974;SDS011;44751;52.236;5.178;2023-07-20T04:08:22;2.33;;;2.10;;
58974;SDS011;44751;52.236;5.178;2023-07-20T04:10:50;3.42;;;2.03;;
58974;SDS011;44751;52.236;5.178;2023-07-20T04:13:17;2.65;;;1.90;;
58974;SDS011;44751;52.236;5.178;2023-07-20T04:15:44;2.53;;;1.83;;
58974;SDS011;44751;52.236;5.178;2023-07-20T04:18:10;2.90;;;1.63;;
58974;SDS011;44751;52.236;5.178;2023-07-20T04:20:37;2.92;;;1.98;;
58974;SDS011;44751;52.236;5.178;2023-07-20T04:23:03;3.75;;;2.10;;
58974;SDS011;44751;52.236;5.178;2023-07-20T04:25:30;2.90;;;1.80;;
58974;SDS011;44751;52.236;5.178;2023-07-20T04:28:04;2.10;;;1.70;;
58974;SDS011;44751;52.236;5.178;2023-07-20T04:30:34;2.70;;;1.90;;
58974;SDS011;44751;52.236;5.178;2023-07-20T04:33:02;2.95;;;1.92;;
58974;SDS011;44751;52.236;5.178;2023-07-20T04:35:51;2.83;;;2.30;;
58974;SDS011;44751;52.236;5.178;2023-07-20T04:38:20;3.83;;;2.22;;
58974;SDS011;44751;52.236;5.178;2023-07-20T04:40:48;2.63;;;2.30;;
58974;SDS011;44751;52.236;5.178;2023-07-20T04:43:15;3.03;;;2.20;;
58974;SDS011;44751;52.236;5.178;2023-07-20T04:45:43;6.32;;;2.25;;
58974;SDS011;44751;52.236;5.178;2023-07-20T04:48:10;3.47;;;2.40;;
58974;SDS011;44751;52.236;5.178;2023-07-20T04:50:43;3.30;;;2.15;;
58974;SDS011;44751;52.236;5.178;2023-07-20T04:53:13;3.60;;;2.30;;
58974;SDS011;44751;52.236;5.178;2023-07-20T04:55:40;3.63;;;1.92;;
58974;SDS011;44751;52.236;5.178;2023-07-20T04:58:15;2.45;;;2.10;;
58974;SDS011;44751;52.236;5.178;2023-07-20T05:00:42;2.50;;;2.30;;
58974;SDS011;44751;52.236;5.178;2023-07-20T05:03:08;2.83;;;1.75;;
58974;SDS011;44751;52.236;5.178;2023-07-20T05:05:34;1.85;;;1.55;;
58974;SDS011;44751;52.236;5.178;2023-07-20T05:08:01;2.33;;;1.70;;
58974;SDS011;44751;52.236;5.178;2023-07-20T05:10:29;1.85;;;1.50;;
58974;SDS011;44751;52.236;5.178;2023-07-20T05:12:57;2.13;;;1.60;;
58974;SDS011;44751;52.236;5.178;2023-07-20T05:15:23;3.47;;;1.40;;
58974;SDS011;44751;52.236;5.178;2023-07-20T05:17:50;2.95;;;1.50;;
58974;SDS011;44751;52.236;5.178;2023-07-20T05:20:16;3.75;;;1.45;;
58974;SDS011;44751;52.236;5.178;2023-07-20T05:22:43;1.40;;;1.30;;
58974;SDS011;44751;52.236;5.178;2023-07-20T05:25:10;3.88;;;1.40;;
58974;SDS011;44751;52.236;5.178;2023-07-20T05:27:37;1.70;;;1.35;;
58974;SDS011;44751;52.236;5.178;2023-07-20T05:30:05;2.03;;;1.20;;
58974;SDS011;44751;52.236;5.178;2023-07-20T05:32:33;1.83;;;1.15;;
58974;SDS011;44751;52.236;5.178;2023-07-20T05:35:00;2.55;;;1.20;;
58974;SDS011;44751;52.236;5.178;2023-07-20T05:37:26;1.92;;;1.00;;
58974;SDS011;44751;52.236;5.178;2023-07-20T05:39:52;2.92;;;1.15;;
58974;SDS011;44751;52.236;5.178;2023-07-20T05:42:19;2.63;;;1.23;;
58974;SDS011;44751;52.236;5.178;2023-07-20T05:44:45;1.80;;;1.10;;
58974;SDS011;44751;52.236;5.178;2023-07-20T05:47:13;2.10;;;1.10;;
58974;SDS011;44751;52.236;5.178;2023-07-20T05:49:39;2.38;;;1.00;;
58974;SDS011;44751;52.236;5.178;2023-07-20T05:52:06;2.22;;;1.17;;
58974;SDS011;44751;52.236;5.178;2023-07-20T05:54:35;1.67;;;1.08;;
58974;SDS011;44751;52.236;5.178;2023-07-20T05:57:01;1.63;;;0.90;;
58974;SDS011;44751;52.236;5.178;2023-07-20T05:59:28;2.10;;;1.00;;
58974;SDS011;44751;52.236;5.178;2023-07-20T06:01:55;2.47;;;1.13;;
58974;SDS011;44751;52.236;5.178;2023-07-20T06:04:22;1.55;;;0.90;;
58974;SDS011;44751;52.236;5.178;2023-07-20T06:06:49;3.38;;;1.20;;
58974;SDS011;44751;52.236;5.178;2023-07-20T06:09:15;2.47;;;1.20;;
58974;SDS011;44751;52.236;5.178;2023-07-20T06:11:42;2.05;;;1.00;;
58974;SDS011;44751;52.236;5.178;2023-07-20T06:14:08;1.05;;;0.95;;
58974;SDS011;44751;52.236;5.178;2023-07-20T06:16:35;1.48;;;1.00;;
58974;SDS011;44751;52.236;5.178;2023-07-20T06:19:01;1.13;;;1.02;;
58974;SDS011;44751;52.236;5.178;2023-07-20T06:21:27;0.98;;;0.88;;
58974;SDS011;44751;52.236;5.178;2023-07-20T06:23:54;1.77;;;0.80;;
58974;SDS011;44751;52.236;5.178;2023-07-20T06:26:23;3.22;;;0.70;;
58974;SDS011;44751;52.236;5.178;2023-07-20T06:28:50;2.35;;;0.80;;
58974;SDS011;44751;52.236;5.178;2023-07-20T06:31:16;1.35;;;0.75;;
58974;SDS011;44751;52.236;5.178;2023-07-20T06:33:43;1.98;;;0.68;;
58974;SDS011;44751;52.236;5.178;2023-07-20T06:36:10;1.08;;;0.80;;
58974;SDS011;44751;52.236;5.178;2023-07-20T06:38:37;1.20;;;0.73;;
58974;SDS011;44751;52.236;5.178;2023-07-20T06:41:03;1.67;;;0.60;;
58974;SDS011;44751;52.236;5.178;2023-07-20T06:43:30;3.03;;;0.90;;
58974;SDS011;44751;52.236;5.178;2023-07-20T06:45:56;2.60;;;0.68;;
58974;SDS011;44751;52.236;5.178;2023-07-20T06:48:22;1.23;;;0.80;;
58974;SDS011;44751;52.236;5.178;2023-07-20T06:50:49;1.48;;;0.73;;
58974;SDS011;44751;52.236;5.178;2023-07-20T06:53:15;1.25;;;0.60;;
58974;SDS011;44751;52.236;5.178;2023-07-20T06:55:42;2.42;;;1.17;;
58974;SDS011;44751;52.236;5.178;2023-07-20T06:58:10;2.38;;;0.80;;
58974;SDS011;44751;52.236;5.178;2023-07-20T07:00:37;1.13;;;0.60;;
58974;SDS011;44751;52.236;5.178;2023-07-20T07:03:03;2.97;;;0.80;;
58974;SDS011;44751;52.236;5.178;2023-07-20T07:05:30;1.90;;;0.65;;
58974;SDS011;44751;52.236;5.178;2023-07-20T07:07:56;0.55;;;0.50;;
58974;SDS011;44751;52.236;5.178;2023-07-20T07:10:23;1.17;;;0.50;;
58974;SDS011;44751;52.236;5.178;2023-07-20T07:12:49;2.15;;;0.85;;
58974;SDS011;44751;52.236;5.178;2023-07-20T07:15:16;2.75;;;0.90;;
58974;SDS011;44751;52.236;5.178;2023-07-20T07:17:42;0.50;;;0.50;;
58974;SDS011;44751;52.236;5.178;2023-07-20T07:20:09;0.70;;;0.70;;
58974;SDS011;44751;52.236;5.178;2023-07-20T07:22:36;1.42;;;0.47;;
58974;SDS011;44751;52.236;5.178;2023-07-20T07:25:02;2.70;;;0.50;;
58974;SDS011;44751;52.236;5.178;2023-07-20T07:27:29;2.40;;;0.45;;
58974;SDS011;44751;52.236;5.178;2023-07-20T07:29:56;0.80;;;0.40;;
58974;SDS011;44751;52.236;5.178;2023-07-20T07:32:22;1.70;;;0.60;;
58974;SDS011;44751;52.236;5.178;2023-07-20T07:34:48;0.82;;;0.50;;
58974;SDS011;44751;52.236;5.178;2023-07-20T07:37:15;0.50;;;0.50;;
58974;SDS011;44751;52.236;5.178;2023-07-20T07:39:42;1.67;;;0.50;;
58974;SDS011;44751;52.236;5.178;2023-07-20T07:42:08;0.98;;;0.50;;
58974;SDS011;44751;52.236;5.178;2023-07-20T07:44:35;1.15;;;0.60;;
58974;SDS011;44751;52.236;5.178;2023-07-20T07:47:01;0.50;;;0.50;;
58974;SDS011;44751;52.236;5.178;2023-07-20T07:49:28;0.70;;;0.60;;
58974;SDS011;44751;52.236;5.178;2023-07-20T07:51:58;0.95;;;0.40;;
58974;SDS011;44751;52.236;5.178;2023-07-20T07:54:27;0.90;;;0.52;;
58974;SDS011;44751;52.236;5.178;2023-07-20T07:56:54;0.75;;;0.50;;
58974;SDS011;44751;52.236;5.178;2023-07-20T07:59:21;1.08;;;0.50;;
58974;SDS011;44751;52.236;5.178;2023-07-20T08:01:47;0.45;;;0.45;;
58974;SDS011;44751;52.236;5.178;2023-07-20T08:04:14;2.53;;;0.57;;
58974;SDS011;44751;52.236;5.178;2023-07-20T08:06:40;0.68;;;0.40;;
58974;SDS011;44751;52.236;5.178;2023-07-20T08:09:07;0.70;;;0.50;;
58974;SDS011;44751;52.236;5.178;2023-07-20T08:11:34;3.30;;;0.68;;
58974;SDS011;44751;52.236;5.178;2023-07-20T08:14:00;1.15;;;0.60;;
58974;SDS011;44751;52.236;5.178;2023-07-20T08:16:27;0.50;;;0.50;;
58974;SDS011;44751;52.236;5.178;2023-07-20T08:18:53;0.63;;;0.40;;
58974;SDS011;44751;52.236;5.178;2023-07-20T08:21:20;0.77;;;0.47;;
58974;SDS011;44751;52.236;5.178;2023-07-20T08:23:47;3.00;;;0.75;;
58974;SDS011;44751;52.236;5.178;2023-07-20T08:26:15;1.55;;;0.55;;
58974;SDS011;44751;52.236;5.178;2023-07-20T08:28:47;2.05;;;0.50;;
58974;SDS011;44751;52.236;5.178;2023-07-20T08:31:14;0.40;;;0.40;;
58974;SDS011;44751;52.236;5.178;2023-07-20T08:33:40;1.30;;;0.50;;
58974;SDS011;44751;52.236;5.178;2023-07-20T08:36:07;1.38;;;0.50;;
58974;SDS011;44751;52.236;5.178;2023-07-20T08:38:34;1.15;;;0.50;;
58974;SDS011;44751;52.236;5.178;2023-07-20T08:41:00;1.05;;;0.47;;
58974;SDS011;44751;52.236;5.178;2023-07-20T08:43:27;0.75;;;0.40;;
58974;SDS011;44751;52.236;5.178;2023-07-20T08:45:54;2.05;;;0.50;;
58974;SDS011;44751;52.236;5.178;2023-07-20T08:48:22;0.85;;;0.50;;
58974;SDS011;44751;52.236;5.178;2023-07-20T08:50:49;1.08;;;0.55;;
58974;SDS011;44751;52.236;5.178;2023-07-20T08:53:17;0.82;;;0.47;;
58974;SDS011;44751;52.236;5.178;2023-07-20T08:55:44;0.63;;;0.50;;
58974;SDS011;44751;52.236;5.178;2023-07-20T08:58:12;0.50;;;0.40;;
58974;SDS011;44751;52.236;5.178;2023-07-20T09:00:39;0.70;;;0.43;;
58974;SDS011;44751;52.236;5.178;2023-07-20T09:03:07;0.30;;;0.30;;
58974;SDS011;44751;52.236;5.178;2023-07-20T09:05:34;0.57;;;0.30;;
58974;SDS011;44751;52.236;5.178;2023-07-20T09:08:01;1.75;;;0.32;;
58974;SDS011;44751;52.236;5.178;2023-07-20T09:10:30;0.73;;;0.40;;
58974;SDS011;44751;52.236;5.178;2023-07-20T09:12:57;1.83;;;0.40;;
58974;SDS011;44751;52.236;5.178;2023-07-20T09:15:24;1.30;;;0.40;;
58974;SDS011;44751;52.236;5.178;2023-07-20T09:17:52;1.48;;;0.40;;
58974;SDS011;44751;52.236;5.178;2023-07-20T09:20:20;0.93;;;0.47;;
58974;SDS011;44751;52.236;5.178;2023-07-20T09:22:46;3.13;;;0.50;;
58974;SDS011;44751;52.236;5.178;2023-07-20T09:25:18;2.20;;;0.30;;
58974;SDS011;44751;52.236;5.178;2023-07-20T09:27:46;0.45;;;0.40;;
58974;SDS011;44751;52.236;5.178;2023-07-20T09:30:33;0.57;;;0.40;;
58974;SDS011;44751;52.236;5.178;2023-07-20T09:33:18;0.82;;;0.43;;
58974;SDS011;44751;52.236;5.178;2023-07-20T09:35:47;0.70;;;0.30;;
58974;SDS011;44751;52.236;5.178;2023-07-20T09:38:14;0.30;;;0.30;;
58974;SDS011;44751;52.236;5.178;2023-07-20T09:40:41;0.60;;;0.30;;
58974;SDS011;44751;52.236;5.178;2023-07-20T09:43:08;0.77;;;0.40;;
58974;SDS011;44751;52.236;5.178;2023-07-20T09:45:35;0.30;;;0.30;;
58974;SDS011;44751;52.236;5.178;2023-07-20T09:48:06;1.20;;;0.45;;
58974;SDS011;44751;52.236;5.178;2023-07-20T09:50:34;1.45;;;0.43;;
58974;SDS011;44751;52.236;5.178;2023-07-20T09:53:05;0.37;;;0.37;;
58974;SDS011;44751;52.236;5.178;2023-07-20T09:55:33;1.30;;;0.47;;
58974;SDS011;44751;52.236;5.178;2023-07-20T09:58:00;0.50;;;0.40;;
58974;SDS011;44751;52.236;5.178;2023-07-20T10:00:29;1.70;;;0.60;;
58974;SDS011;44751;52.236;5.178;2023-07-20T10:02:55;2.40;;;0.40;;
58974;SDS011;44751;52.236;5.178;2023-07-20T10:05:23;0.60;;;0.40;;
58974;SDS011;44751;52.236;5.178;2023-07-20T10:07:54;0.73;;;0.50;;
58974;SDS011;44751;52.236;5.178;2023-07-20T10:10:21;0.85;;;0.60;;
58974;SDS011;44751;52.236;5.178;2023-07-20T10:12:48;0.80;;;0.50;;
58974;SDS011;44751;52.236;5.178;2023-07-20T10:15:20;2.25;;;0.60;;
58974;SDS011;44751;52.236;5.178;2023-07-20T10:18:07;1.02;;;0.60;;
58974;SDS011;44751;52.236;5.178;2023-07-20T10:20:38;1.40;;;0.50;;
58974;SDS011;44751;52.236;5.178;2023-07-20T10:23:06;0.63;;;0.50;;
58974;SDS011;44751;52.236;5.178;2023-07-20T10:25:34;0.68;;;0.50;;
58974;SDS011;44751;52.236;5.178;2023-07-20T10:28:04;0.68;;;0.57;;
58974;SDS011;44751;52.236;5.178;2023-07-20T10:30:33;0.50;;;0.43;;
58974;SDS011;44751;52.236;5.178;2023-07-20T10:33:04;1.00;;;0.50;;
58974;SDS011;44751;52.236;5.178;2023-07-20T10:35:50;0.93;;;0.50;;
58974;SDS011;44751;52.236;5.178;2023-07-20T10:41:29;0.57;;;0.40;;
58974;SDS011;44751;52.236;5.178;2023-07-20T10:44:03;0.68;;;0.50;;
58974;SDS011;44751;52.236;5.178;2023-07-20T10:46:34;0.82;;;0.50;;
58974;SDS011;44751;52.236;5.178;2023-07-20T10:49:11;0.70;;;0.52;;
58974;SDS011;44751;52.236;5.178;2023-07-20T10:51:43;1.13;;;0.50;;
58974;SDS011;44751;52.236;5.178;2023-07-20T11:01:48;1.33;;;0.40;;
58974;SDS011;44751;52.236;5.178;2023-07-20T11:04:15;1.00;;;0.60;;
58974;SDS011;44751;52.236;5.178;2023-07-20T11:06:43;0.93;;;0.60;;
58974;SDS011;44751;52.236;5.178;2023-07-20T11:09:13;4.85;;;1.05;;
58974;SDS011;44751;52.236;5.178;2023-07-20T11:11:47;1.92;;;0.85;;
58974;SDS011;44751;52.236;5.178;2023-07-20T11:14:23;1.40;;;0.85;;
58974;SDS011;44751;52.236;5.178;2023-07-20T11:16:51;2.55;;;0.75;;
58974;SDS011;44751;52.236;5.178;2023-07-20T11:19:26;0.77;;;0.70;;
58974;SDS011;44751;52.236;5.178;2023-07-20T11:21:53;0.90;;;0.70;;
58974;SDS011;44751;52.236;5.178;2023-07-20T11:24:23;0.70;;;0.70;;
58974;SDS011;44751;52.236;5.178;2023-07-20T11:26:50;0.68;;;0.60;;
58974;SDS011;44751;52.236;5.178;2023-07-20T11:29:22;1.50;;;0.60;;
58974;SDS011;44751;52.236;5.178;2023-07-20T11:31:50;1.70;;;0.70;;
58974;SDS011;44751;52.236;5.178;2023-07-20T11:34:18;0.77;;;0.68;;
58974;SDS011;44751;52.236;5.178;2023-07-20T11:36:46;1.50;;;0.80;;
58974;SDS011;44751;52.236;5.178;2023-07-20T11:39:15;0.73;;;0.70;;
58974;SDS011;44751;52.236;5.178;2023-07-20T11:41:50;1.85;;;1.05;;
58974;SDS011;44751;52.236;5.178;2023-07-20T11:44:24;1.48;;;1.15;;
58974;SDS011;44751;52.236;5.178;2023-07-20T11:49:36;1.50;;;0.80;;
58974;SDS011;44751;52.236;5.178;2023-07-20T11:52:04;1.02;;;0.80;;
58974;SDS011;44751;52.236;5.178;2023-07-20T11:54:32;2.08;;;0.90;;
58974;SDS011;44751;52.236;5.178;2023-07-20T11:57:01;1.33;;;0.80;;
58974;SDS011;44751;52.236;5.178;2023-07-20T11:59:28;1.25;;;0.77;;
58974;SDS011;44751;52.236;5.178;2023-07-20T12:01:56;1.50;;;0.85;;
58974;SDS011;44751;52.236;5.178;2023-07-20T12:04:23;1.58;;;0.80;;
58974;SDS011;44751;52.236;5.178;2023-07-20T12:06:49;1.00;;;0.90;;
58974;SDS011;44751;52.236;5.178;2023-07-20T12:09:19;1.80;;;0.85;;
58974;SDS011;44751;52.236;5.178;2023-07-20T12:11:48;1.63;;;0.90;;
58974;SDS011;44751;52.236;5.178;2023-07-20T12:14:15;1.00;;;0.80;;
58974;SDS011;44751;52.236;5.178;2023-07-20T12:16:43;1.35;;;0.75;;
58974;SDS011;44751;52.236;5.178;2023-07-20T12:19:10;1.45;;;0.60;;
58974;SDS011;44751;52.236;5.178;2023-07-20T12:21:39;2.28;;;0.77;;
58974;SDS011;44751;52.236;5.178;2023-07-20T12:24:07;0.60;;;0.60;;
58974;SDS011;44751;52.236;5.178;2023-07-20T12:26:35;0.77;;;0.75;;
58974;SDS011;44751;52.236;5.178;2023-07-20T12:29:01;3.28;;;0.73;;
58974;SDS011;44751;52.236;5.178;2023-07-20T12:31:31;0.90;;;0.55;;
58974;SDS011;44751;52.236;5.178;2023-07-20T12:33:59;1.90;;;0.80;;
58974;SDS011;44751;52.236;5.178;2023-07-20T12:36:26;1.08;;;0.68;;
58974;SDS011;44751;52.236;5.178;2023-07-20T12:38:52;1.65;;;0.73;;
58974;SDS011;44751;52.236;5.178;2023-07-20T12:41:19;0.93;;;0.80;;
58974;SDS011;44751;52.236;5.178;2023-07-20T12:44:00;1.02;;;0.70;;
58974;SDS011;44751;52.236;5.178;2023-07-20T12:46:26;1.65;;;0.60;;
58974;SDS011;44751;52.236;5.178;2023-07-20T12:48:55;1.23;;;0.55;;
58974;SDS011;44751;52.236;5.178;2023-07-20T12:51:22;1.55;;;0.70;;
58974;SDS011;44751;52.236;5.178;2023-07-20T12:53:48;0.85;;;0.70;;
58974;SDS011;44751;52.236;5.178;2023-07-20T12:56:15;1.88;;;0.77;;
58974;SDS011;44751;52.236;5.178;2023-07-20T12:58:41;1.05;;;0.70;;
58974;SDS011;44751;52.236;5.178;2023-07-20T13:01:08;1.50;;;0.98;;
58974;SDS011;44751;52.236;5.178;2023-07-20T13:03:34;0.95;;;0.75;;
58974;SDS011;44751;52.236;5.178;2023-07-20T13:06:01;1.65;;;0.70;;
58974;SDS011;44751;52.236;5.178;2023-07-20T13:08:27;1.20;;;0.57;;
58974;SDS011;44751;52.236;5.178;2023-07-20T13:10:54;2.00;;;0.80;;
58974;SDS011;44751;52.236;5.178;2023-07-20T13:13:21;0.82;;;0.65;;
58974;SDS011;44751;52.236;5.178;2023-07-20T13:15:49;1.30;;;0.70;;
58974;SDS011;44751;52.236;5.178;2023-07-20T13:18:16;0.75;;;0.60;;
58974;SDS011;44751;52.236;5.178;2023-07-20T13:20:43;1.15;;;0.68;;
58974;SDS011;44751;52.236;5.178;2023-07-20T13:23:10;1.80;;;0.63;;
58974;SDS011;44751;52.236;5.178;2023-07-20T13:26:04;1.33;;;0.60;;
58974;SDS011;44751;52.236;5.178;2023-07-20T13:28:31;0.63;;;0.60;;
58974;SDS011;44751;52.236;5.178;2023-07-20T13:31:01;0.70;;;0.50;;
58974;SDS011;44751;52.236;5.178;2023-07-20T13:33:28;1.13;;;0.50;;
58974;SDS011;44751;52.236;5.178;2023-07-20T13:36:21;0.70;;;0.60;;
58974;SDS011;44751;52.236;5.178;2023-07-20T13:38:49;1.20;;;0.50;;
58974;SDS011;44751;52.236;5.178;2023-07-20T13:41:15;0.65;;;0.55;;
58974;SDS011;44751;52.236;5.178;2023-07-20T13:43:42;1.30;;;0.50;;
58974;SDS011;44751;52.236;5.178;2023-07-20T13:46:09;0.57;;;0.50;;
58974;SDS011;44751;52.236;5.178;2023-07-20T13:48:35;2.00;;;0.77;;
58974;SDS011;44751;52.236;5.178;2023-07-20T13:51:02;1.88;;;0.70;;
58974;SDS011;44751;52.236;5.178;2023-07-20T13:53:28;1.10;;;0.50;;
58974;SDS011;44751;52.236;5.178;2023-07-20T13:55:55;0.52;;;0.50;;
58974;SDS011;44751;52.236;5.178;2023-07-20T13:58:22;1.98;;;0.68;;
58974;SDS011;44751;52.236;5.178;2023-07-20T14:00:48;1.50;;;0.68;;
58974;SDS011;44751;52.236;5.178;2023-07-20T14:03:14;1.17;;;0.73;;
58974;SDS011;44751;52.236;5.178;2023-07-20T14:05:41;0.82;;;0.55;;
58974;SDS011;44751;52.236;5.178;2023-07-20T14:08:08;1.75;;;0.70;;
58974;SDS011;44751;52.236;5.178;2023-07-20T14:10:35;1.25;;;0.90;;
58974;SDS011;44751;52.236;5.178;2023-07-20T14:13:01;1.63;;;0.47;;
58974;SDS011;44751;52.236;5.178;2023-07-20T14:15:28;2.15;;;0.60;;
58974;SDS011;44751;52.236;5.178;2023-07-20T14:17:54;0.80;;;0.50;;
58974;SDS011;44751;52.236;5.178;2023-07-20T14:20:22;1.02;;;0.60;;
58974;SDS011;44751;52.236;5.178;2023-07-20T14:22:49;0.47;;;0.47;;
58974;SDS011;44751;52.236;5.178;2023-07-20T14:25:15;2.58;;;0.60;;
58974;SDS011;44751;52.236;5.178;2023-07-20T14:27:42;3.17;;;0.70;;
58974;SDS011;44751;52.236;5.178;2023-07-20T14:30:08;1.27;;;0.60;;
58974;SDS011;44751;52.236;5.178;2023-07-20T14:32:35;1.10;;;0.80;;
58974;SDS011;44751;52.236;5.178;2023-07-20T14:35:01;1.00;;;0.50;;
58974;SDS011;44751;52.236;5.178;2023-07-20T14:37:28;1.58;;;0.70;;
58974;SDS011;44751;52.236;5.178;2023-07-20T14:39:55;2.83;;;0.70;;
58974;SDS011;44751;52.236;5.178;2023-07-20T14:42:21;1.20;;;0.50;;
58974;SDS011;44751;52.236;5.178;2023-07-20T14:44:48;2.95;;;0.60;;
58974;SDS011;44751;52.236;5.178;2023-07-20T14:47:14;1.08;;;0.63;;
58974;SDS011;44751;52.236;5.178;2023-07-20T14:49:41;3.03;;;0.80;;
58974;SDS011;44751;52.236;5.178;2023-07-20T14:52:07;1.35;;;0.70;;
58974;SDS011;44751;52.236;5.178;2023-07-20T14:54:35;1.30;;;0.52;;
58974;SDS011;44751;52.236;5.178;2023-07-20T14:57:01;3.05;;;0.60;;
58974;SDS011;44751;52.236;5.178;2023-07-20T14:59:29;2.20;;;0.80;;
58974;SDS011;44751;52.236;5.178;2023-07-20T15:01:55;0.80;;;0.80;;
58974;SDS011;44751;52.236;5.178;2023-07-20T15:04:22;1.42;;;0.80;;
58974;SDS011;44751;52.236;5.178;2023-07-20T15:06:54;2.05;;;0.70;;
58974;SDS011;44751;52.236;5.178;2023-07-20T15:11:54;1.17;;;0.60;;
58974;SDS011;44751;52.236;5.178;2023-07-20T15:14:21;2.55;;;0.70;;